sensor_id;sensor_type;location;lat;lon;timestamp;P1;durP1;ratioP1;P2;durP2;ratioP2
3217;SDS011;1621;49.702;8.618;2023-08-08T00:00:15;5.40;;;2.40;;
3217;SDS011;1621;49.702;8.618;2023-08-08T00:02:42;6.23;;;2.10;;
3217;SDS011;1621;49.702;8.618;2023-08-08T00:05:08;6.40;;;2.10;;
3217;SDS011;1621;49.702;8.618;2023-08-08T00:07:34;9.00;;;2.47;;
3217;SDS011;1621;49.702;8.618;2023-08-08T00:10:01;4.20;;;2.57;;
3217;SDS011;1621;49.702;8.618;2023-08-08T00:12:28;4.80;;;2.27;;
3217;SDS011;1621;49.702;8.618;2023-08-08T00:14:55;5.37;;;2.27;;
3217;SDS011;1621;49.702;8.618;2023-08-08T00:17:21;7.03;;;2.37;;
3217;SDS011;1621;49.702;8.618;2023-08-08T00:19:47;6.23;;;2.33;;
3217;SDS011;1621;49.702;8.618;2023-08-08T00:22:13;4.73;;;2.50;;
3217;SDS011;1621;49.702;8.618;2023-08-08T00:24:40;7.27;;;2.50;;
3217;SDS011;1621;49.702;8.618;2023-08-08T00:27:06;4.30;;;2.30;;
3217;SDS011;1621;49.702;8.618;2023-08-08T00:29:33;7.43;;;2.77;;
3217;SDS011;1621;49.702;8.618;2023-08-08T00:32:00;5.40;;;2.70;;
3217;SDS011;1621;49.702;8.618;2023-08-08T00:34:26;4.83;;;2.13;;
3217;SDS011;1621;49.702;8.618;2023-08-08T00:36:52;3.60;;;2.07;;
3217;SDS011;1621;49.702;8.618;2023-08-08T00:39:18;4.67;;;2.40;;
3217;SDS011;1621;49.702;8.618;2023-08-08T00:41:45;3.83;;;2.20;;
3217;SDS011;1621;49.702;8.618;2023-08-08T00:44:11;3.57;;;2.00;;
3217;SDS011;1621;49.702;8.618;2023-08-08T00:46:39;6.10;;;2.60;;
3217;SDS011;1621;49.702;8.618;2023-08-08T00:49:05;4.77;;;2.40;;
3217;SDS011;1621;49.702;8.618;2023-08-08T00:51:31;6.00;;;2.13;;
3217;SDS011;1621;49.702;8.618;2023-08-08T00:53:58;4.10;;;2.30;;
3217;SDS011;1621;49.702;8.618;2023-08-08T00:56:24;4.27;;;2.00;;
3217;SDS011;1621;49.702;8.618;2023-08-08T00:58:51;4.10;;;2.13;;
3217;SDS011;1621;49.702;8.618;2023-08-08T01:01:17;4.70;;;2.13;;
3217;SDS011;1621;49.702;8.618;2023-08-08T01:03:45;4.10;;;2.17;;
3217;SDS011;1621;49.702;8.618;2023-08-08T01:06:13;6.27;;;2.40;;
3217;SDS011;1621;49.702;8.618;2023-08-08T01:08:42;3.93;;;2.20;;
3217;SDS011;1621;49.702;8.618;2023-08-08T01:11:09;4.63;;;2.00;;
3217;SDS011;1621;49.702;8.618;2023-08-08T01:13:35;4.73;;;2.00;;
3217;SDS011;1621;49.702;8.618;2023-08-08T01:16:03;4.63;;;2.50;;
3217;SDS011;1621;49.702;8.618;2023-08-08T01:18:31;7.00;;;1.90;;
3217;SDS011;1621;49.702;8.618;2023-08-08T01:20:59;4.90;;;2.33;;
3217;SDS011;1621;49.702;8.618;2023-08-08T01:23:26;3.67;;;2.37;;
3217;SDS011;1621;49.702;8.618;2023-08-08T01:25:56;4.17;;;2.10;;
3217;SDS011;1621;49.702;8.618;2023-08-08T01:28:22;4.43;;;2.17;;
3217;SDS011;1621;49.702;8.618;2023-08-08T01:30:49;4.03;;;2.10;;
3217;SDS011;1621;49.702;8.618;2023-08-08T01:33:15;4.60;;;2.30;;
3217;SDS011;1621;49.702;8.618;2023-08-08T01:35:43;7.10;;;2.93;;
3217;SDS011;1621;49.702;8.618;2023-08-08T01:38:11;6.67;;;2.40;;
3217;SDS011;1621;49.702;8.618;2023-08-08T01:40:38;5.43;;;2.20;;
3217;SDS011;1621;49.702;8.618;2023-08-08T01:43:07;4.20;;;2.20;;
3217;SDS011;1621;49.702;8.618;2023-08-08T01:45:34;4.10;;;2.13;;
3217;SDS011;1621;49.702;8.618;2023-08-08T01:48:05;3.80;;;1.63;;
3217;SDS011;1621;49.702;8.618;2023-08-08T01:50:31;4.17;;;2.20;;
3217;SDS011;1621;49.702;8.618;2023-08-08T01:52:58;6.43;;;2.50;;
3217;SDS011;1621;49.702;8.618;2023-08-08T01:55:24;5.23;;;2.37;;
3217;SDS011;1621;49.702;8.618;2023-08-08T01:57:50;4.20;;;1.90;;
3217;SDS011;1621;49.702;8.618;2023-08-08T02:00:18;5.23;;;2.33;;
3217;SDS011;1621;49.702;8.618;2023-08-08T02:02:44;4.80;;;2.10;;
3217;SDS011;1621;49.702;8.618;2023-08-08T02:05:10;4.37;;;2.33;;
3217;SDS011;1621;49.702;8.618;2023-08-08T02:07:37;6.20;;;2.50;;
3217;SDS011;1621;49.702;8.618;2023-08-08T02:10:03;4.77;;;2.07;;
3217;SDS011;1621;49.702;8.618;2023-08-08T02:12:30;4.30;;;2.33;;
3217;SDS011;1621;49.702;8.618;2023-08-08T02:14:56;5.70;;;2.43;;
3217;SDS011;1621;49.702;8.618;2023-08-08T02:17:24;5.37;;;2.80;;
3217;SDS011;1621;49.702;8.618;2023-08-08T02:19:50;8.63;;;2.30;;
3217;SDS011;1621;49.702;8.618;2023-08-08T02:22:16;4.53;;;2.20;;
3217;SDS011;1621;49.702;8.618;2023-08-08T02:24:42;3.70;;;2.10;;
3217;SDS011;1621;49.702;8.618;2023-08-08T02:27:09;5.50;;;2.13;;
3217;SDS011;1621;49.702;8.618;2023-08-08T02:29:35;4.33;;;2.27;;
3217;SDS011;1621;49.702;8.618;2023-08-08T02:32:01;7.70;;;2.40;;
3217;SDS011;1621;49.702;8.618;2023-08-08T02:34:29;4.07;;;2.13;;
3217;SDS011;1621;49.702;8.618;2023-08-08T02:36:55;6.13;;;2.60;;
3217;SDS011;1621;49.702;8.618;2023-08-08T02:39:22;5.10;;;2.80;;
3217;SDS011;1621;49.702;8.618;2023-08-08T02:41:48;5.57;;;2.63;;
3217;SDS011;1621;49.702;8.618;2023-08-08T02:44:14;5.87;;;2.70;;
3217;SDS011;1621;49.702;8.618;2023-08-08T02:46:40;4.50;;;2.60;;
3217;SDS011;1621;49.702;8.618;2023-08-08T02:49:07;4.80;;;2.50;;
3217;SDS011;1621;49.702;8.618;2023-08-08T02:51:34;4.40;;;2.47;;
3217;SDS011;1621;49.702;8.618;2023-08-08T02:54:01;5.03;;;2.13;;
3217;SDS011;1621;49.702;8.618;2023-08-08T02:56:27;5.60;;;2.37;;
3217;SDS011;1621;49.702;8.618;2023-08-08T02:58:53;4.10;;;2.30;;
3217;SDS011;1621;49.702;8.618;2023-08-08T03:01:19;4.40;;;2.07;;
3217;SDS011;1621;49.702;8.618;2023-08-08T03:03:46;6.70;;;2.30;;
3217;SDS011;1621;49.702;8.618;2023-08-08T03:06:13;4.33;;;2.40;;
3217;SDS011;1621;49.702;8.618;2023-08-08T03:08:40;4.63;;;2.60;;
3217;SDS011;1621;49.702;8.618;2023-08-08T03:11:07;7.10;;;3.00;;
3217;SDS011;1621;49.702;8.618;2023-08-08T03:13:33;4.10;;;2.10;;
3217;SDS011;1621;49.702;8.618;2023-08-08T03:15:59;6.37;;;3.20;;
3217;SDS011;1621;49.702;8.618;2023-08-08T03:18:25;5.50;;;2.13;;
3217;SDS011;1621;49.702;8.618;2023-08-08T03:20:52;5.53;;;2.40;;
3217;SDS011;1621;49.702;8.618;2023-08-08T03:23:18;6.80;;;3.00;;
3217;SDS011;1621;49.702;8.618;2023-08-08T03:25:46;4.33;;;2.13;;
3217;SDS011;1621;49.702;8.618;2023-08-08T03:28:12;4.90;;;2.33;;
3217;SDS011;1621;49.702;8.618;2023-08-08T03:30:38;6.90;;;3.37;;
3217;SDS011;1621;49.702;8.618;2023-08-08T03:33:04;8.00;;;2.40;;
3217;SDS011;1621;49.702;8.618;2023-08-08T03:35:31;4.57;;;2.47;;
3217;SDS011;1621;49.702;8.618;2023-08-08T03:37:57;5.03;;;2.37;;
3217;SDS011;1621;49.702;8.618;2023-08-08T03:40:23;4.13;;;2.13;;
3217;SDS011;1621;49.702;8.618;2023-08-08T03:42:51;7.57;;;2.47;;
3217;SDS011;1621;49.702;8.618;2023-08-08T03:45:17;6.00;;;2.30;;
3217;SDS011;1621;49.702;8.618;2023-08-08T03:47:43;7.13;;;2.30;;
3217;SDS011;1621;49.702;8.618;2023-08-08T03:50:10;5.63;;;2.57;;
3217;SDS011;1621;49.702;8.618;2023-08-08T03:52:37;5.47;;;2.97;;
3217;SDS011;1621;49.702;8.618;2023-08-08T03:55:03;4.17;;;2.30;;
3217;SDS011;1621;49.702;8.618;2023-08-08T03:57:30;4.80;;;2.23;;
3217;SDS011;1621;49.702;8.618;2023-08-08T03:59:58;6.23;;;3.00;;
3217;SDS011;1621;49.702;8.618;2023-08-08T04:02:24;9.23;;;2.70;;
3217;SDS011;1621;49.702;8.618;2023-08-08T04:04:50;6.67;;;2.53;;
3217;SDS011;1621;49.702;8.618;2023-08-08T04:07:17;6.77;;;2.50;;
3217;SDS011;1621;49.702;8.618;2023-08-08T04:09:43;5.90;;;2.90;;
3217;SDS011;1621;49.702;8.618;2023-08-08T04:12:09;7.37;;;2.40;;
3217;SDS011;1621;49.702;8.618;2023-08-08T04:14:35;6.90;;;3.70;;
3217;SDS011;1621;49.702;8.618;2023-08-08T04:17:03;5.03;;;2.00;;
3217;SDS011;1621;49.702;8.618;2023-08-08T04:19:30;5.30;;;2.50;;
3217;SDS011;1621;49.702;8.618;2023-08-08T04:21:57;4.40;;;2.70;;
3217;SDS011;1621;49.702;8.618;2023-08-08T04:24:24;9.43;;;2.23;;
3217;SDS011;1621;49.702;8.618;2023-08-08T04:26:51;3.93;;;2.00;;
3217;SDS011;1621;49.702;8.618;2023-08-08T04:29:17;10.33;;;2.43;;
3217;SDS011;1621;49.702;8.618;2023-08-08T04:31:43;5.37;;;2.70;;
3217;SDS011;1621;49.702;8.618;2023-08-08T04:34:11;6.20;;;2.57;;
3217;SDS011;1621;49.702;8.618;2023-08-08T04:36:37;7.03;;;2.47;;
3217;SDS011;1621;49.702;8.618;2023-08-08T04:39:03;7.33;;;2.70;;
3217;SDS011;1621;49.702;8.618;2023-08-08T04:41:30;16.03;;;2.53;;
3217;SDS011;1621;49.702;8.618;2023-08-08T04:43:56;5.90;;;2.60;;
3217;SDS011;1621;49.702;8.618;2023-08-08T04:46:22;4.57;;;2.27;;
3217;SDS011;1621;49.702;8.618;2023-08-08T04:48:49;4.47;;;2.50;;
3217;SDS011;1621;49.702;8.618;2023-08-08T04:51:16;5.73;;;3.10;;
3217;SDS011;1621;49.702;8.618;2023-08-08T04:53:43;5.90;;;3.20;;
3217;SDS011;1621;49.702;8.618;2023-08-08T04:56:09;6.43;;;2.57;;
3217;SDS011;1621;49.702;8.618;2023-08-08T04:58:35;5.30;;;2.60;;
3217;SDS011;1621;49.702;8.618;2023-08-08T05:01:02;4.60;;;2.60;;
3217;SDS011;1621;49.702;8.618;2023-08-08T05:03:28;6.90;;;3.17;;
3217;SDS011;1621;49.702;8.618;2023-08-08T05:05:54;7.07;;;3.10;;
3217;SDS011;1621;49.702;8.618;2023-08-08T05:08:22;5.33;;;2.60;;
3217;SDS011;1621;49.702;8.618;2023-08-08T05:10:48;5.23;;;2.47;;
3217;SDS011;1621;49.702;8.618;2023-08-08T05:13:14;5.67;;;2.60;;
3217;SDS011;1621;49.702;8.618;2023-08-08T05:15:41;8.20;;;2.83;;
3217;SDS011;1621;49.702;8.618;2023-08-08T05:18:07;8.90;;;2.70;;
3217;SDS011;1621;49.702;8.618;2023-08-08T05:20:33;5.63;;;2.47;;
3217;SDS011;1621;49.702;8.618;2023-08-08T05:23:00;4.33;;;2.37;;
3217;SDS011;1621;49.702;8.618;2023-08-08T05:25:27;7.37;;;2.93;;
3217;SDS011;1621;49.702;8.618;2023-08-08T05:27:53;7.00;;;2.80;;
3217;SDS011;1621;49.702;8.618;2023-08-08T05:30:20;6.23;;;3.03;;
3217;SDS011;1621;49.702;8.618;2023-08-08T05:32:46;7.77;;;3.00;;
3217;SDS011;1621;49.702;8.618;2023-08-08T05:35:13;4.93;;;2.53;;
3217;SDS011;1621;49.702;8.618;2023-08-08T05:37:39;5.53;;;2.40;;
3217;SDS011;1621;49.702;8.618;2023-08-08T05:40:06;5.57;;;2.93;;
3217;SDS011;1621;49.702;8.618;2023-08-08T05:42:34;5.77;;;2.87;;
3217;SDS011;1621;49.702;8.618;2023-08-08T05:45:00;5.73;;;3.00;;
3217;SDS011;1621;49.702;8.618;2023-08-08T05:47:27;5.13;;;2.63;;
3217;SDS011;1621;49.702;8.618;2023-08-08T05:49:53;9.00;;;3.00;;
3217;SDS011;1621;49.702;8.618;2023-08-08T05:52:19;8.87;;;3.40;;
3217;SDS011;1621;49.702;8.618;2023-08-08T05:54:46;5.23;;;2.40;;
3217;SDS011;1621;49.702;8.618;2023-08-08T05:57:12;6.37;;;3.33;;
3217;SDS011;1621;49.702;8.618;2023-08-08T05:59:40;6.03;;;2.90;;
3217;SDS011;1621;49.702;8.618;2023-08-08T06:02:09;4.90;;;2.90;;
3217;SDS011;1621;49.702;8.618;2023-08-08T06:04:36;5.30;;;2.83;;
3217;SDS011;1621;49.702;8.618;2023-08-08T06:07:02;6.70;;;3.20;;
3217;SDS011;1621;49.702;8.618;2023-08-08T06:09:28;8.50;;;3.37;;
3217;SDS011;1621;49.702;8.618;2023-08-08T06:11:56;6.40;;;3.00;;
3217;SDS011;1621;49.702;8.618;2023-08-08T06:14:22;4.47;;;2.63;;
3217;SDS011;1621;49.702;8.618;2023-08-08T06:16:50;16.13;;;3.20;;
3217;SDS011;1621;49.702;8.618;2023-08-08T06:19:16;5.83;;;3.00;;
3217;SDS011;1621;49.702;8.618;2023-08-08T06:21:43;6.10;;;2.73;;
3217;SDS011;1621;49.702;8.618;2023-08-08T06:24:09;9.80;;;3.30;;
3217;SDS011;1621;49.702;8.618;2023-08-08T06:26:36;10.30;;;2.97;;
3217;SDS011;1621;49.702;8.618;2023-08-08T06:29:02;13.23;;;3.10;;
3217;SDS011;1621;49.702;8.618;2023-08-08T06:31:29;5.73;;;2.90;;
3217;SDS011;1621;49.702;8.618;2023-08-08T06:33:56;10.43;;;2.97;;
3217;SDS011;1621;49.702;8.618;2023-08-08T06:36:23;7.00;;;3.20;;
3217;SDS011;1621;49.702;8.618;2023-08-08T06:38:49;8.20;;;3.00;;
3217;SDS011;1621;49.702;8.618;2023-08-08T06:41:15;6.90;;;3.53;;
3217;SDS011;1621;49.702;8.618;2023-08-08T06:43:41;5.90;;;3.13;;
3217;SDS011;1621;49.702;8.618;2023-08-08T06:46:08;9.97;;;3.40;;
3217;SDS011;1621;49.702;8.618;2023-08-08T06:48:34;8.00;;;3.93;;
3217;SDS011;1621;49.702;8.618;2023-08-08T06:51:02;5.73;;;2.63;;
3217;SDS011;1621;49.702;8.618;2023-08-08T06:53:28;5.27;;;3.13;;
3217;SDS011;1621;49.702;8.618;2023-08-08T06:55:54;5.53;;;3.03;;
3217;SDS011;1621;49.702;8.618;2023-08-08T06:58:20;5.57;;;2.97;;
3217;SDS011;1621;49.702;8.618;2023-08-08T07:00:48;8.10;;;2.90;;
3217;SDS011;1621;49.702;8.618;2023-08-08T07:03:14;7.30;;;3.07;;
3217;SDS011;1621;49.702;8.618;2023-08-08T07:05:40;5.07;;;2.70;;
3217;SDS011;1621;49.702;8.618;2023-08-08T07:08:08;5.30;;;2.73;;
3217;SDS011;1621;49.702;8.618;2023-08-08T07:10:34;6.03;;;2.83;;
3217;SDS011;1621;49.702;8.618;2023-08-08T07:13:01;8.73;;;3.10;;
3217;SDS011;1621;49.702;8.618;2023-08-08T07:15:27;5.30;;;2.97;;
3217;SDS011;1621;49.702;8.618;2023-08-08T07:17:53;8.07;;;3.40;;
3217;SDS011;1621;49.702;8.618;2023-08-08T07:20:20;5.40;;;2.87;;
3217;SDS011;1621;49.702;8.618;2023-08-08T07:22:47;4.90;;;2.50;;
3217;SDS011;1621;49.702;8.618;2023-08-08T07:25:15;4.50;;;2.17;;
3217;SDS011;1621;49.702;8.618;2023-08-08T07:27:41;6.80;;;2.93;;
3217;SDS011;1621;49.702;8.618;2023-08-08T07:30:08;5.87;;;2.70;;
3217;SDS011;1621;49.702;8.618;2023-08-08T07:32:34;6.17;;;2.80;;
3217;SDS011;1621;49.702;8.618;2023-08-08T07:35:00;7.50;;;2.77;;
3217;SDS011;1621;49.702;8.618;2023-08-08T07:37:30;5.30;;;2.57;;
3217;SDS011;1621;49.702;8.618;2023-08-08T07:39:56;4.90;;;2.93;;
3217;SDS011;1621;49.702;8.618;2023-08-08T07:42:24;4.27;;;2.40;;
3217;SDS011;1621;49.702;8.618;2023-08-08T07:44:50;6.93;;;2.87;;
3217;SDS011;1621;49.702;8.618;2023-08-08T07:47:17;6.50;;;3.20;;
3217;SDS011;1621;49.702;8.618;2023-08-08T07:49:43;7.80;;;4.00;;
3217;SDS011;1621;49.702;8.618;2023-08-08T07:52:09;7.47;;;3.30;;
3217;SDS011;1621;49.702;8.618;2023-08-08T07:54:36;4.90;;;2.77;;
3217;SDS011;1621;49.702;8.618;2023-08-08T07:57:02;6.00;;;2.23;;
3217;SDS011;1621;49.702;8.618;2023-08-08T07:59:30;6.70;;;3.07;;
3217;SDS011;1621;49.702;8.618;2023-08-08T08:01:56;5.03;;;2.67;;
3217;SDS011;1621;49.702;8.618;2023-08-08T08:04:22;8.00;;;2.27;;
3217;SDS011;1621;49.702;8.618;2023-08-08T08:06:49;6.80;;;2.50;;
3217;SDS011;1621;49.702;8.618;2023-08-08T08:09:15;4.77;;;2.17;;
3217;SDS011;1621;49.702;8.618;2023-08-08T08:11:41;3.57;;;1.50;;
3217;SDS011;1621;49.702;8.618;2023-08-08T08:14:08;4.60;;;1.50;;
3217;SDS011;1621;49.702;8.618;2023-08-08T08:16:35;4.43;;;1.70;;
3217;SDS011;1621;49.702;8.618;2023-08-08T08:19:02;4.13;;;1.50;;
3217;SDS011;1621;49.702;8.618;2023-08-08T08:21:29;3.67;;;1.40;;
3217;SDS011;1621;49.702;8.618;2023-08-08T08:23:55;4.30;;;2.10;;
3217;SDS011;1621;49.702;8.618;2023-08-08T08:26:22;3.33;;;1.40;;
3217;SDS011;1621;49.702;8.618;2023-08-08T08:28:48;3.63;;;1.33;;
3217;SDS011;1621;49.702;8.618;2023-08-08T08:31:14;4.03;;;1.70;;
3217;SDS011;1621;49.702;8.618;2023-08-08T08:33:42;3.60;;;1.70;;
3217;SDS011;1621;49.702;8.618;2023-08-08T08:36:08;3.30;;;1.40;;
3217;SDS011;1621;49.702;8.618;2023-08-08T08:38:34;3.83;;;1.50;;
3217;SDS011;1621;49.702;8.618;2023-08-08T08:41:00;4.60;;;1.77;;
3217;SDS011;1621;49.702;8.618;2023-08-08T08:43:28;4.40;;;2.03;;
3217;SDS011;1621;49.702;8.618;2023-08-08T08:45:54;4.30;;;1.60;;
3217;SDS011;1621;49.702;8.618;2023-08-08T08:48:21;2.97;;;1.40;;
3217;SDS011;1621;49.702;8.618;2023-08-08T08:50:48;4.30;;;1.50;;
3217;SDS011;1621;49.702;8.618;2023-08-08T08:53:15;4.80;;;2.20;;
3217;SDS011;1621;49.702;8.618;2023-08-08T08:55:42;3.40;;;1.53;;
3217;SDS011;1621;49.702;8.618;2023-08-08T08:58:09;4.60;;;1.73;;
3217;SDS011;1621;49.702;8.618;2023-08-08T09:00:35;3.83;;;1.50;;
3217;SDS011;1621;49.702;8.618;2023-08-08T09:03:02;3.03;;;1.47;;
3217;SDS011;1621;49.702;8.618;2023-08-08T09:05:29;5.33;;;1.77;;
3217;SDS011;1621;49.702;8.618;2023-08-08T09:07:57;6.30;;;1.60;;
3217;SDS011;1621;49.702;8.618;2023-08-08T09:10:23;3.43;;;1.57;;
3217;SDS011;1621;49.702;8.618;2023-08-08T09:12:50;3.57;;;1.63;;
3217;SDS011;1621;49.702;8.618;2023-08-08T09:15:16;4.30;;;1.50;;
3217;SDS011;1621;49.702;8.618;2023-08-08T09:17:43;4.03;;;1.33;;
3217;SDS011;1621;49.702;8.618;2023-08-08T09:20:10;3.87;;;1.67;;
3217;SDS011;1621;49.702;8.618;2023-08-08T09:22:37;3.33;;;1.57;;
3217;SDS011;1621;49.702;8.618;2023-08-08T09:25:05;4.30;;;1.70;;
3217;SDS011;1621;49.702;8.618;2023-08-08T09:27:33;5.70;;;2.50;;
3217;SDS011;1621;49.702;8.618;2023-08-08T09:29:59;6.00;;;1.67;;
3217;SDS011;1621;49.702;8.618;2023-08-08T09:32:28;3.37;;;1.57;;
3217;SDS011;1621;49.702;8.618;2023-08-08T09:34:55;3.70;;;1.70;;
3217;SDS011;1621;49.702;8.618;2023-08-08T09:37:21;5.43;;;1.70;;
3217;SDS011;1621;49.702;8.618;2023-08-08T09:39:55;4.77;;;1.70;;
3217;SDS011;1621;49.702;8.618;2023-08-08T09:42:22;3.67;;;1.67;;
3217;SDS011;1621;49.702;8.618;2023-08-08T09:44:50;3.60;;;1.43;;
3217;SDS011;1621;49.702;8.618;2023-08-08T09:47:16;5.53;;;1.80;;
3217;SDS011;1621;49.702;8.618;2023-08-08T09:49:42;4.60;;;1.60;;
3217;SDS011;1621;49.702;8.618;2023-08-08T09:52:09;3.17;;;1.40;;
3217;SDS011;1621;49.702;8.618;2023-08-08T09:54:36;3.30;;;1.50;;
3217;SDS011;1621;49.702;8.618;2023-08-08T09:57:03;3.90;;;1.73;;
3217;SDS011;1621;49.702;8.618;2023-08-08T09:59:31;4.87;;;1.60;;
3217;SDS011;1621;49.702;8.618;2023-08-08T10:01:57;3.97;;;1.67;;
3217;SDS011;1621;49.702;8.618;2023-08-08T10:04:23;3.67;;;1.70;;
3217;SDS011;1621;49.702;8.618;2023-08-08T10:06:50;5.33;;;1.77;;
3217;SDS011;1621;49.702;8.618;2023-08-08T10:09:17;3.73;;;1.30;;
3217;SDS011;1621;49.702;8.618;2023-08-08T10:11:44;4.03;;;1.77;;
3217;SDS011;1621;49.702;8.618;2023-08-08T10:14:10;4.13;;;1.80;;
3217;SDS011;1621;49.702;8.618;2023-08-08T10:16:39;5.67;;;1.83;;
3217;SDS011;1621;49.702;8.618;2023-08-08T10:19:08;5.73;;;1.83;;
3217;SDS011;1621;49.702;8.618;2023-08-08T10:21:35;4.77;;;1.87;;
3217;SDS011;1621;49.702;8.618;2023-08-08T10:24:02;4.10;;;1.80;;
3217;SDS011;1621;49.702;8.618;2023-08-08T10:26:28;5.00;;;1.90;;
3217;SDS011;1621;49.702;8.618;2023-08-08T10:28:55;3.57;;;1.50;;
3217;SDS011;1621;49.702;8.618;2023-08-08T10:31:21;3.87;;;2.23;;
3217;SDS011;1621;49.702;8.618;2023-08-08T10:33:49;4.33;;;2.13;;
3217;SDS011;1621;49.702;8.618;2023-08-08T10:36:15;3.93;;;1.63;;
3217;SDS011;1621;49.702;8.618;2023-08-08T10:38:43;4.87;;;1.70;;
3217;SDS011;1621;49.702;8.618;2023-08-08T10:41:10;4.03;;;1.70;;
3217;SDS011;1621;49.702;8.618;2023-08-08T10:43:37;3.73;;;1.73;;
3217;SDS011;1621;49.702;8.618;2023-08-08T10:46:04;3.43;;;1.60;;
3217;SDS011;1621;49.702;8.618;2023-08-08T10:48:30;3.23;;;1.30;;
3217;SDS011;1621;49.702;8.618;2023-08-08T10:50:58;5.07;;;2.00;;
3217;SDS011;1621;49.702;8.618;2023-08-08T10:53:25;8.17;;;2.33;;
3217;SDS011;1621;49.702;8.618;2023-08-08T10:55:56;5.43;;;1.60;;
3217;SDS011;1621;49.702;8.618;2023-08-08T10:58:23;4.93;;;2.03;;
3217;SDS011;1621;49.702;8.618;2023-08-08T11:01:00;5.07;;;1.97;;
3217;SDS011;1621;49.702;8.618;2023-08-08T11:03:26;3.53;;;1.57;;
3217;SDS011;1621;49.702;8.618;2023-08-08T11:05:53;4.77;;;2.00;;
3217;SDS011;1621;49.702;8.618;2023-08-08T11:08:21;4.40;;;1.83;;
3217;SDS011;1621;49.702;8.618;2023-08-08T11:10:50;4.03;;;1.53;;
3217;SDS011;1621;49.702;8.618;2023-08-08T11:13:17;3.40;;;1.70;;
3217;SDS011;1621;49.702;8.618;2023-08-08T11:15:43;5.43;;;2.03;;
3217;SDS011;1621;49.702;8.618;2023-08-08T11:18:09;4.60;;;1.40;;
3217;SDS011;1621;49.702;8.618;2023-08-08T11:20:36;3.80;;;1.80;;
3217;SDS011;1621;49.702;8.618;2023-08-08T11:23:04;3.33;;;1.57;;
3217;SDS011;1621;49.702;8.618;2023-08-08T11:25:32;5.93;;;1.57;;
3217;SDS011;1621;49.702;8.618;2023-08-08T11:27:58;3.73;;;1.60;;
3217;SDS011;1621;49.702;8.618;2023-08-08T11:30:27;3.50;;;1.50;;
3217;SDS011;1621;49.702;8.618;2023-08-08T11:32:54;4.30;;;1.60;;
3217;SDS011;1621;49.702;8.618;2023-08-08T11:35:21;4.27;;;1.67;;
3217;SDS011;1621;49.702;8.618;2023-08-08T11:37:48;3.50;;;1.73;;
3217;SDS011;1621;49.702;8.618;2023-08-08T11:40:15;5.37;;;1.90;;
3217;SDS011;1621;49.702;8.618;2023-08-08T11:42:43;4.53;;;1.80;;
3217;SDS011;1621;49.702;8.618;2023-08-08T11:45:11;4.00;;;1.70;;
3217;SDS011;1621;49.702;8.618;2023-08-08T11:47:38;3.40;;;1.63;;
3217;SDS011;1621;49.702;8.618;2023-08-08T11:50:05;3.60;;;1.43;;
3217;SDS011;1621;49.702;8.618;2023-08-08T11:52:32;3.73;;;1.70;;
3217;SDS011;1621;49.702;8.618;2023-08-08T11:54:58;3.63;;;1.60;;
3217;SDS011;1621;49.702;8.618;2023-08-08T11:57:25;4.40;;;1.60;;
3217;SDS011;1621;49.702;8.618;2023-08-08T11:59:53;3.90;;;1.53;;
3217;SDS011;1621;49.702;8.618;2023-08-08T12:02:20;5.00;;;2.37;;
3217;SDS011;1621;49.702;8.618;2023-08-08T12:04:46;5.87;;;1.60;;
3217;SDS011;1621;49.702;8.618;2023-08-08T12:07:13;4.47;;;1.50;;
3217;SDS011;1621;49.702;8.618;2023-08-08T12:09:39;3.80;;;1.47;;
3217;SDS011;1621;49.702;8.618;2023-08-08T12:12:05;4.20;;;1.70;;
3217;SDS011;1621;49.702;8.618;2023-08-08T12:14:36;4.90;;;1.67;;
3217;SDS011;1621;49.702;8.618;2023-08-08T12:17:03;3.87;;;1.70;;
3217;SDS011;1621;49.702;8.618;2023-08-08T12:19:30;5.60;;;1.90;;
3217;SDS011;1621;49.702;8.618;2023-08-08T12:21:56;3.63;;;1.50;;
3217;SDS011;1621;49.702;8.618;2023-08-08T12:24:22;7.70;;;2.03;;
3217;SDS011;1621;49.702;8.618;2023-08-08T12:26:49;4.93;;;2.00;;
3217;SDS011;1621;49.702;8.618;2023-08-08T12:29:15;4.20;;;1.63;;
3217;SDS011;1621;49.702;8.618;2023-08-08T12:31:41;5.63;;;1.97;;
3217;SDS011;1621;49.702;8.618;2023-08-08T12:34:09;8.23;;;2.30;;
3217;SDS011;1621;49.702;8.618;2023-08-08T12:36:35;3.43;;;1.27;;
3217;SDS011;1621;49.702;8.618;2023-08-08T12:39:02;3.77;;;1.80;;
3217;SDS011;1621;49.702;8.618;2023-08-08T12:41:29;3.10;;;1.37;;
3217;SDS011;1621;49.702;8.618;2023-08-08T12:43:56;4.10;;;1.33;;
3217;SDS011;1621;49.702;8.618;2023-08-08T12:46:22;3.53;;;1.50;;
3217;SDS011;1621;49.702;8.618;2023-08-08T12:48:49;6.33;;;2.10;;
3217;SDS011;1621;49.702;8.618;2023-08-08T12:51:16;5.00;;;1.90;;
3217;SDS011;1621;49.702;8.618;2023-08-08T12:53:43;3.50;;;1.80;;
3217;SDS011;1621;49.702;8.618;2023-08-08T12:56:09;3.97;;;1.60;;
3217;SDS011;1621;49.702;8.618;2023-08-08T12:58:35;4.73;;;2.13;;
3217;SDS011;1621;49.702;8.618;2023-08-08T13:01:02;4.20;;;1.77;;
3217;SDS011;1621;49.702;8.618;2023-08-08T13:03:28;4.17;;;1.80;;
3217;SDS011;1621;49.702;8.618;2023-08-08T13:05:55;4.03;;;1.70;;
3217;SDS011;1621;49.702;8.618;2023-08-08T13:08:23;4.10;;;1.67;;
3217;SDS011;1621;49.702;8.618;2023-08-08T13:10:49;3.70;;;1.47;;
3217;SDS011;1621;49.702;8.618;2023-08-08T13:13:15;3.60;;;1.67;;
3217;SDS011;1621;49.702;8.618;2023-08-08T13:15:41;7.00;;;2.03;;
3217;SDS011;1621;49.702;8.618;2023-08-08T13:18:08;3.50;;;1.43;;
3217;SDS011;1621;49.702;8.618;2023-08-08T13:20:34;3.10;;;1.30;;
3217;SDS011;1621;49.702;8.618;2023-08-08T13:23:01;5.20;;;1.10;;
3217;SDS011;1621;49.702;8.618;2023-08-08T13:25:30;4.03;;;1.43;;
3217;SDS011;1621;49.702;8.618;2023-08-08T13:27:59;2.80;;;1.43;;
3217;SDS011;1621;49.702;8.618;2023-08-08T13:30:26;3.70;;;1.53;;
3217;SDS011;1621;49.702;8.618;2023-08-08T13:32:52;4.27;;;1.90;;
3217;SDS011;1621;49.702;8.618;2023-08-08T13:35:19;4.47;;;1.57;;
3217;SDS011;1621;49.702;8.618;2023-08-08T13:37:45;3.00;;;1.50;;
3217;SDS011;1621;49.702;8.618;2023-08-08T13:40:14;4.40;;;1.90;;
3217;SDS011;1621;49.702;8.618;2023-08-08T13:42:42;3.90;;;1.60;;
3217;SDS011;1621;49.702;8.618;2023-08-08T13:45:12;4.20;;;1.87;;
3217;SDS011;1621;49.702;8.618;2023-08-08T13:47:39;5.20;;;1.67;;
3217;SDS011;1621;49.702;8.618;2023-08-08T13:50:05;4.20;;;1.43;;
3217;SDS011;1621;49.702;8.618;2023-08-08T13:52:32;3.50;;;1.37;;
3217;SDS011;1621;49.702;8.618;2023-08-08T13:54:59;4.73;;;1.50;;
3217;SDS011;1621;49.702;8.618;2023-08-08T13:57:25;4.43;;;1.60;;
3217;SDS011;1621;49.702;8.618;2023-08-08T13:59:53;4.93;;;1.63;;
3217;SDS011;1621;49.702;8.618;2023-08-08T14:02:20;4.63;;;1.67;;
3217;SDS011;1621;49.702;8.618;2023-08-08T14:04:46;3.57;;;1.43;;
3217;SDS011;1621;49.702;8.618;2023-08-08T14:07:12;8.30;;;1.43;;
3217;SDS011;1621;49.702;8.618;2023-08-08T14:09:39;3.40;;;1.50;;
3217;SDS011;1621;49.702;8.618;2023-08-08T14:12:05;4.77;;;1.57;;
3217;SDS011;1621;49.702;8.618;2023-08-08T14:14:31;5.10;;;1.80;;
3217;SDS011;1621;49.702;8.618;2023-08-08T14:16:59;5.73;;;1.73;;
3217;SDS011;1621;49.702;8.618;2023-08-08T14:19:25;3.03;;;1.50;;
3217;SDS011;1621;49.702;8.618;2023-08-08T14:21:51;3.57;;;1.30;;
3217;SDS011;1621;49.702;8.618;2023-08-08T14:24:18;5.00;;;1.40;;
3217;SDS011;1621;49.702;8.618;2023-08-08T14:26:44;3.60;;;1.60;;
3217;SDS011;1621;49.702;8.618;2023-08-08T14:29:10;3.17;;;1.50;;
3217;SDS011;1621;49.702;8.618;2023-08-08T14:31:37;17.80;;;1.73;;
3217;SDS011;1621;49.702;8.618;2023-08-08T14:34:04;5.10;;;1.40;;
3217;SDS011;1621;49.702;8.618;2023-08-08T14:36:31;4.60;;;1.50;;
3217;SDS011;1621;49.702;8.618;2023-08-08T14:38:57;2.90;;;1.43;;
3217;SDS011;1621;49.702;8.618;2023-08-08T14:41:23;5.40;;;1.50;;
3217;SDS011;1621;49.702;8.618;2023-08-08T14:43:49;4.40;;;1.70;;
3217;SDS011;1621;49.702;8.618;2023-08-08T14:46:16;3.67;;;1.53;;
3217;SDS011;1621;49.702;8.618;2023-08-08T14:48:42;5.03;;;1.77;;
3217;SDS011;1621;49.702;8.618;2023-08-08T14:51:10;3.80;;;1.40;;
3217;SDS011;1621;49.702;8.618;2023-08-08T14:53:39;4.57;;;1.90;;
3217;SDS011;1621;49.702;8.618;2023-08-08T14:56:05;4.43;;;1.50;;
3217;SDS011;1621;49.702;8.618;2023-08-08T14:58:32;4.33;;;1.37;;
3217;SDS011;1621;49.702;8.618;2023-08-08T15:00:59;3.83;;;1.50;;
3217;SDS011;1621;49.702;8.618;2023-08-08T15:03:26;3.07;;;1.47;;
3217;SDS011;1621;49.702;8.618;2023-08-08T15:05:52;3.53;;;1.50;;
3217;SDS011;1621;49.702;8.618;2023-08-08T15:08:20;4.90;;;2.03;;
3217;SDS011;1621;49.702;8.618;2023-08-08T15:10:49;3.90;;;1.50;;